Thursday, March 30, 2017, 2:28 PM EDT

KJYO, Leesburg / Godfrey

Location: Leesburg, VA, United States Lat: 39.083
Local Time: 2:28 PM EDT (18:28 GMT) Lon: -77.567
Time Zone: US/Eastern Elev: 390 ft

Show me the last for .
Show Decoded

2017-03-30 14:15 METAR KJYO 301815Z AUTO 17010G14KT 10SM OVC046 12/01 A3014 RMK AO2 =
2017-03-30 13:55 METAR KJYO 301755Z AUTO 17009KT 10SM OVC046 12/01 A3016 RMK AO2 =
2017-03-30 13:35 METAR KJYO 301735Z AUTO 18008KT 10SM OVC046 11/01 A3018 RMK AO2 =
2017-03-30 13:15 METAR KJYO 301715Z AUTO 17009KT 10SM OVC048 11/00 A3019 RMK AO2 =
2017-03-30 12:55 METAR KJYO 301655Z AUTO 19009KT 10SM OVC048 11/01 A3020 RMK AO2 LTG DSNT NW =
2017-03-30 12:35 METAR KJYO 301635Z AUTO 15008KT 10SM OVC048 12/01 A3020 RMK AO2 =
2017-03-30 12:15 METAR KJYO 301615Z AUTO 15007KT 10SM OVC048 11/00 A3021 RMK AO2 =
2017-03-30 11:55 METAR KJYO 301555Z AUTO 16008KT 10SM OVC048 10/00 A3023 RMK AO2 =
2017-03-30 11:35 METAR KJYO 301535Z AUTO 13004KT 10SM OVC048 10/00 A3024 RMK AO2 LTG DSNT W =
2017-03-30 11:15 METAR KJYO 301515Z AUTO 12003KT 10SM OVC048 09/01 A3024 RMK AO2 LTG DSNT W =
2017-03-30 10:55 METAR KJYO 301455Z AUTO 13008KT 10SM OVC050 09/00 A3024 RMK AO2 =
2017-03-30 10:35 METAR KJYO 301435Z AUTO 11007KT 10SM OVC050 08/00 A3025 RMK AO2 =
2017-03-30 10:15 METAR KJYO 301415Z AUTO 12006KT 10SM OVC050 08/01 A3025 RMK AO2 =
2017-03-30 09:55 METAR KJYO 301355Z AUTO 08005KT 10SM OVC055 08/01 A3026 RMK AO2 =
2017-03-30 09:35 METAR KJYO 301335Z AUTO 06005KT 10SM OVC055 07/00 A3026 RMK AO2 =
2017-03-30 09:15 METAR KJYO 301315Z AUTO 06004KT 10SM OVC055 07/00 A3026 RMK AO2 =
2017-03-30 08:55 METAR KJYO 301255Z AUTO 09006KT 10SM OVC065 07/00 A3027 RMK AO2 =
2017-03-30 08:35 METAR KJYO 301235Z AUTO 08005KT 10SM OVC065 07/00 A3027 RMK AO2 =
2017-03-30 08:15 METAR KJYO 301215Z AUTO 08005KT 10SM OVC065 07/00 A3026 RMK AO2 =
2017-03-30 07:55 METAR KJYO 301155Z AUTO 08006KT 10SM OVC065 07/00 A3026 RMK AO2 =
2017-03-30 07:35 METAR KJYO 301135Z AUTO 06005KT 10SM OVC065 07/00 A3026 RMK AO2 =
2017-03-30 07:15 METAR KJYO 301115Z AUTO 06004KT 10SM OVC065 07/00 A3026 RMK AO2 =
2017-03-30 06:55 METAR KJYO 301055Z AUTO 06006KT 10SM OVC065 07/00 A3026 RMK AO2 =
2017-03-30 06:35 METAR KJYO 301035Z AUTO 05005KT 10SM OVC065 07/00 A3025 RMK AO2 =
2017-03-30 06:15 METAR KJYO 301015Z AUTO 07005KT 10SM OVC065 07/00 A3024 RMK AO2 =
2017-03-30 05:55 METAR KJYO 300955Z AUTO 05005KT 10SM OVC065 07/01 A3024 RMK AO2 =
2017-03-30 05:35 METAR KJYO 300935Z AUTO 05005KT 10SM OVC065 07/00 A3024 RMK AO2 =
2017-03-30 05:15 METAR KJYO 300915Z AUTO 04004KT 10SM OVC065 07/01 A3023 RMK AO2 =
2017-03-30 04:55 METAR KJYO 300855Z AUTO 05003KT 10SM OVC075 07/01 A3023 RMK AO2 =
2017-03-30 04:35 METAR KJYO 300835Z AUTO 04003KT 10SM SCT075 07/00 A3023 RMK AO2 =
2017-03-30 04:15 METAR KJYO 300815Z AUTO 04004KT 10SM CLR 07/00 A3023 RMK AO2 =
2017-03-30 03:55 METAR KJYO 300755Z AUTO 04005KT 10SM SCT070 08/01 A3022 RMK AO2 =
2017-03-30 03:35 METAR KJYO 300735Z AUTO 04005KT 10SM BKN070 08/01 A3021 RMK AO2 =
2017-03-30 03:15 METAR KJYO 300715Z AUTO 05006KT 10SM CLR 08/01 A3020 RMK AO2 =
2017-03-30 02:55 METAR KJYO 300655Z AUTO 05003KT 10SM CLR 07/02 A3021 RMK AO2 =
2017-03-30 02:35 METAR KJYO 300635Z AUTO 00000KT 10SM CLR 07/02 A3021 RMK AO2 =
2017-03-30 02:15 METAR KJYO 300615Z AUTO 00000KT 10SM CLR 08/02 A3022 RMK AO2 =
2017-03-30 01:55 METAR KJYO 300555Z AUTO 05003KT 10SM CLR 10/01 A3021 RMK AO2 =
2017-03-30 01:35 METAR KJYO 300535Z AUTO 05005KT 10SM CLR 10/01 A3021 RMK AO2 =
2017-03-30 01:15 METAR KJYO 300515Z AUTO 04004KT 10SM CLR 10/01 A3021 RMK AO2 =
2017-03-30 00:55 METAR KJYO 300455Z AUTO 05005KT 10SM CLR 10/02 A3021 RMK AO2 =
2017-03-30 00:35 METAR KJYO 300435Z AUTO 05005KT 10SM CLR 10/02 A3021 RMK AO2 =
2017-03-30 00:15 METAR KJYO 300415Z AUTO 05003KT 10SM CLR 10/02 A3021 RMK AO2 =
2017-03-29 23:55 METAR KJYO 300355Z AUTO 06003KT 10SM CLR 10/03 A3021 RMK AO2 =
2017-03-29 23:35 METAR KJYO 300335Z AUTO 07004KT 10SM CLR 11/02 A3021 RMK AO2 =
2017-03-29 23:15 METAR KJYO 300315Z AUTO 06004KT 10SM CLR 11/02 A3021 RMK AO2 =
2017-03-29 22:55 METAR KJYO 300255Z AUTO 05007KT 10SM CLR 12/03 A3021 RMK AO2 =
2017-03-29 22:35 METAR KJYO 300235Z AUTO 06007KT 10SM CLR 12/03 A3020 RMK AO2 =
2017-03-29 22:15 METAR KJYO 300215Z AUTO 07006KT 10SM CLR 12/03 A3020 RMK AO2 =
2017-03-29 21:55 METAR KJYO 300155Z AUTO 05005KT 10SM CLR 12/03 A3020 RMK AO2 =
2017-03-29 21:35 METAR KJYO 300135Z AUTO 05005KT 10SM CLR 13/03 A3019 RMK AO2 =
2017-03-29 21:15 METAR KJYO 300115Z AUTO 04004KT 10SM CLR 13/04 A3018 RMK AO2 =
2017-03-29 20:55 METAR KJYO 300055Z AUTO 06004KT 10SM CLR 13/04 A3016 RMK AO2 =
2017-03-29 20:35 METAR KJYO 300035Z AUTO 06004KT 10SM CLR 15/03 A3016 RMK AO2 =
2017-03-29 20:15 METAR KJYO 300015Z AUTO 06005KT 10SM CLR 15/03 A3014 RMK AO2 =
2017-03-29 19:55 METAR KJYO 292355Z AUTO 04004KT 10SM CLR 16/03 A3014 RMK AO2 =
2017-03-29 19:35 METAR KJYO 292335Z AUTO 03005KT 10SM CLR 16/03 A3014 RMK AO2 =
2017-03-29 19:15 METAR KJYO 292315Z AUTO 04007KT 10SM CLR 17/03 A3014 RMK AO2 =
2017-03-29 18:55 METAR KJYO 292255Z AUTO 02005KT 10SM CLR 17/04 A3013 RMK AO2 =
2017-03-29 18:35 METAR KJYO 292235Z AUTO 01008KT 10SM CLR 17/03 A3012 RMK AO2 =
2017-03-29 18:15 METAR KJYO 292215Z AUTO 36008KT 10SM CLR 17/04 A3012 RMK AO2 =
2017-03-29 17:55 METAR KJYO 292155Z AUTO 03009KT 10SM CLR 18/04 A3011 RMK AO2 =
2017-03-29 17:35 METAR KJYO 292135Z AUTO 01008G15KT 10SM CLR 18/04 A3011 RMK AO2 =
2017-03-29 17:15 METAR KJYO 292115Z AUTO 04011G16KT 10SM CLR 18/04 A3011 RMK AO2 =
2017-03-29 16:55 METAR KJYO 292055Z AUTO 36005G08KT 10SM CLR 17/03 A3011 RMK AO2 =
2017-03-29 16:35 METAR KJYO 292035Z AUTO 36010G14KT 10SM CLR 18/04 A3011 RMK AO2 =
2017-03-29 16:15 METAR KJYO 292015Z AUTO 02005KT 10SM CLR 18/05 A3010 RMK AO2 =
2017-03-29 15:55 METAR KJYO 291955Z AUTO 35008KT 10SM CLR 18/04 A3010 RMK AO2 =
2017-03-29 15:35 METAR KJYO 291935Z AUTO 36006KT 10SM CLR 17/04 A3010 RMK AO2 =
2017-03-29 15:15 METAR KJYO 291915Z AUTO 33006KT 10SM CLR 17/05 A3011 RMK AO2 =
2017-03-29 14:55 METAR KJYO 291855Z AUTO 01004KT 10SM CLR 17/05 A3011 RMK AO2 =
2017-03-29 14:35 METAR KJYO 291835Z AUTO 34005KT 10SM CLR 17/07 A3012 RMK AO2 =

Support USWX by starting your Amazon purchase here.